This is the latest recevied weather packets stored in our database for station/object SQ5TM-1. If no packets are shown the sender has not sent any weather packets the latest 10 day(s).
| Time | Temp. | Humidity | Pressure | Rain* | Wind** | Luminosity | Snow |
|---|---|---|---|---|---|---|---|
| 1777988703 | 27.22° C | 31% | 994 hPa | - | - | 0 W/m² | - |
| 1777987779 | 26.67° C | 31% | 995 hPa | - | - | 0 W/m² | - |
| 1777986854 | 27.22° C | 31% | 995 hPa | - | - | 0 W/m² | - |
| 1777985929 | 27.78° C | 32% | 995 hPa | - | - | 0 W/m² | - |
| 1777985005 | 30° C | 29% | 995 hPa | - | - | 0 W/m² | - |
| 1777984081 | 31.11° C | 28% | 995 hPa | - | - | 0 W/m² | - |
| 1777983157 | 28.89° C | 30% | 995 hPa | - | - | 0 W/m² | - |
| 1777982233 | 30° C | 30% | 995 hPa | - | - | 0 W/m² | - |
| 1777981369 | 27.78° C | 32% | 996 hPa | - | - | 0 W/m² | - |
| 1777980445 | 29.44° C | 32% | 996 hPa | - | - | 0 W/m² | - |
| 1777979520 | 28.89° C | 33% | 996 hPa | - | - | 0 W/m² | - |
| 1777978595 | 31.67° C | 32% | 996 hPa | - | - | 0 W/m² | - |
| 1777977671 | 27.78° C | 36% | 996 hPa | - | - | 0 W/m² | - |
| 1777977471 | 28.89° C | 35% | 996 hPa | - | - | 0 W/m² | - |
| 1777976805 | 25.56° C | 40% | 996 hPa | - | - | 0 W/m² | - |
| 1777975622 | 26.67° C | 39% | 997 hPa | - | - | 0 W/m² | - |
| 1777974778 | 25.56° C | 42% | 997 hPa | - | - | 0 W/m² | - |
| 1777973853 | 23.89° C | 43% | 997 hPa | - | - | 0 W/m² | - |
| 1777972929 | 24.44° C | 43% | 997 hPa | - | - | 0 W/m² | - |
| 1777972429 | 25° C | 43% | 997 hPa | - | - | 0 W/m² | - |
| 1777971504 | 23.89° C | 45% | 997 hPa | - | - | 0 W/m² | - |
| 1777970580 | 24.44° C | 45% | 997 hPa | - | - | 0 W/m² | - |
| 1777969656 | 23.33° C | 46% | 997 hPa | - | - | 0 W/m² | - |
| 1777968732 | 21.67° C | 50% | 997 hPa | - | - | 0 W/m² | - |
| 1777967808 | 21.67° C | 51% | 997 hPa | - | - | 0 W/m² | - |
* Rain since midnight (hover to see other rain measurements)
** Current wind speed in m/s (hover to see current wind gust speed)